createdAt,value
2022-09-23T00:00:53.320Z,0
2022-09-23T00:02:09.000Z,0
2022-09-23T00:03:25.906Z,0
2022-09-23T00:04:42.197Z,0
2022-09-23T00:05:58.494Z,0
2022-09-23T00:07:13.791Z,0
2022-09-23T00:08:30.098Z,0
2022-09-23T00:09:46.396Z,0
2022-09-23T00:11:02.682Z,0
2022-09-23T00:12:18.971Z,0
2022-09-23T00:13:35.261Z,0
2022-09-23T00:14:51.568Z,0
2022-09-23T00:16:07.846Z,0
2022-09-23T00:17:24.144Z,0
2022-09-23T00:18:40.430Z,0
2022-09-23T00:19:56.745Z,0
2022-09-23T00:21:13.021Z,0
2022-09-23T00:22:29.321Z,0
2022-09-23T00:23:44.625Z,0
2022-09-23T00:25:00.921Z,0
2022-09-23T00:26:17.225Z,0
2022-09-23T00:27:33.519Z,0
2022-09-23T00:28:49.814Z,0
2022-09-23T00:30:06.088Z,0
2022-09-23T00:31:22.400Z,0
2022-09-23T00:32:38.691Z,0
2022-09-23T00:33:54.985Z,0
2022-09-23T00:35:11.273Z,0
2022-09-23T00:36:27.558Z,0
2022-09-23T00:37:43.846Z,0
2022-09-23T00:39:00.149Z,0
2022-09-23T00:40:15.448Z,0
2022-09-23T00:41:31.758Z,0
2022-09-23T00:42:48.036Z,0
2022-09-23T00:44:04.339Z,0
2022-09-23T00:45:20.633Z,0
2022-09-23T00:46:36.933Z,0
2022-09-23T00:47:53.220Z,0
2022-09-23T00:49:09.521Z,0
2022-09-23T00:50:25.805Z,0
2022-09-23T00:51:42.096Z,0
2022-09-23T00:52:58.397Z,0
2022-09-23T00:54:14.000Z,0
2022-09-23T00:55:30.983Z,0
2022-09-23T00:56:46.287Z,0
2022-09-23T00:58:02.579Z,0
2022-09-23T00:59:18.873Z,0
2022-09-23T01:00:35.162Z,0
2022-09-23T01:01:51.469Z,0
2022-09-23T01:03:07.752Z,0
2022-09-23T01:04:24.049Z,0
2022-09-23T01:05:40.346Z,0
2022-09-23T01:06:56.637Z,0
2022-09-23T01:08:12.919Z,0
2022-09-23T01:09:29.225Z,0
2022-09-23T01:10:45.521Z,0
2022-09-23T01:12:01.799Z,0
2022-09-23T01:13:17.129Z,0
2022-09-23T01:14:33.416Z,0
2022-09-23T01:15:49.706Z,0
2022-09-23T01:17:05.994Z,0
2022-09-23T01:18:22.290Z,0
2022-09-23T01:19:38.576Z,0
2022-09-23T01:20:54.884Z,0
2022-09-23T01:22:11.175Z,0
2022-09-23T01:23:27.455Z,0
2022-09-23T01:24:43.748Z,0
2022-09-23T01:26:00.058Z,0
2022-09-23T01:27:16.336Z,0
2022-09-23T01:28:32.645Z,0
2022-09-23T01:29:47.954Z,0
2022-09-23T01:31:04.252Z,0
2022-09-23T01:32:20.540Z,0
2022-09-23T01:33:36.830Z,0
2022-09-23T01:34:53.130Z,0
2022-09-23T01:36:09.410Z,0
2022-09-23T01:37:24.737Z,0
2022-09-23T01:38:41.000Z,0
2022-09-23T01:39:57.327Z,0
2022-09-23T01:41:13.620Z,0
2022-09-23T01:42:29.905Z,0
2022-09-23T01:43:46.196Z,0
2022-09-23T01:45:02.487Z,0
2022-09-23T01:46:18.781Z,0
2022-09-23T01:47:35.069Z,0
2022-09-23T01:48:51.378Z,0
2022-09-23T01:50:07.673Z,0
2022-09-23T01:51:23.962Z,0
2022-09-23T01:52:40.257Z,0
2022-09-23T01:53:55.571Z,0
2022-09-23T01:55:11.859Z,0
2022-09-23T01:56:28.155Z,0
2022-09-23T01:57:44.450Z,0
2022-09-23T01:59:00.729Z,0
2022-09-23T02:00:17.030Z,0
2022-09-23T02:01:33.315Z,0
2022-09-23T02:02:49.611Z,0
2022-09-23T02:04:05.907Z,0
2022-09-23T02:05:22.198Z,0
2022-09-23T02:06:38.502Z,0
2022-09-23T02:07:54.790Z,0
2022-09-23T02:09:11.076Z,0
2022-09-23T02:10:26.398Z,0
2022-09-23T02:11:42.691Z,0
2022-09-23T02:12:58.974Z,0
2022-09-23T02:14:15.268Z,0
2022-09-23T02:15:31.563Z,0
2022-09-23T02:16:47.858Z,0
2022-09-23T02:18:04.155Z,0
2022-09-23T02:19:20.453Z,0
2022-09-23T02:20:36.744Z,0
2022-09-23T02:21:53.038Z,0
2022-09-23T02:23:09.332Z,0
2022-09-23T02:24:25.613Z,0
2022-09-23T02:25:41.910Z,0
2022-09-23T02:26:57.227Z,0
2022-09-23T02:28:13.520Z,0
2022-09-23T02:29:29.807Z,0
2022-09-23T02:30:46.120Z,0
2022-09-23T02:32:02.399Z,0
2022-09-23T02:33:18.692Z,0
2022-09-23T02:34:34.992Z,0
2022-09-23T02:35:51.283Z,0
2022-09-23T02:37:07.563Z,0
2022-09-23T02:38:23.859Z,0
2022-09-23T02:39:40.147Z,0
2022-09-23T02:40:56.456Z,0
2022-09-23T02:42:12.739Z,0
2022-09-23T02:43:28.051Z,0
2022-09-23T02:44:44.350Z,0
2022-09-23T02:46:00.651Z,0
2022-09-23T02:47:16.928Z,0
2022-09-23T02:48:33.225Z,0
2022-09-23T02:49:49.526Z,0
2022-09-23T02:51:05.821Z,0
2022-09-23T02:52:22.116Z,0
2022-09-23T02:53:38.404Z,0
2022-09-23T02:54:54.705Z,0
2022-09-23T02:56:10.985Z,0
2022-09-23T02:57:27.292Z,0
2022-09-23T02:58:43.578Z,0
2022-09-23T02:59:58.889Z,0
2022-09-23T03:01:15.174Z,0
2022-09-23T03:02:31.476Z,0
2022-09-23T03:03:47.757Z,0
2022-09-23T03:05:04.053Z,0
2022-09-23T03:06:20.356Z,0
2022-09-23T03:07:36.654Z,0
2022-09-23T03:08:52.938Z,0
2022-09-23T03:10:09.236Z,0
2022-09-23T03:11:25.523Z,0
2022-09-23T03:12:41.828Z,0
2022-09-23T03:13:58.115Z,0
2022-09-23T03:15:14.412Z,0
2022-09-23T03:16:29.713Z,0
2022-09-23T03:17:46.016Z,0
2022-09-23T03:19:02.306Z,0
2022-09-23T03:20:18.599Z,0
2022-09-23T03:21:34.903Z,0
2022-09-23T03:22:51.189Z,0
2022-09-23T03:24:07.478Z,0
2022-09-23T03:25:23.770Z,0
2022-09-23T03:26:40.064Z,0
2022-09-23T03:27:56.362Z,0
2022-09-23T03:29:12.654Z,0
2022-09-23T03:30:28.943Z,0
2022-09-23T03:31:45.240Z,0
2022-09-23T03:33:00.555Z,0
2022-09-23T03:34:16.839Z,0
2022-09-23T03:35:33.131Z,0
2022-09-23T03:36:49.435Z,0
2022-09-23T03:38:05.711Z,0
2022-09-23T03:39:22.025Z,0
2022-09-23T03:40:38.317Z,0
2022-09-23T03:41:54.593Z,0
2022-09-23T03:43:10.899Z,0
2022-09-23T03:44:27.196Z,0
2022-09-23T03:45:43.491Z,0
2022-09-23T03:46:59.783Z,0
2022-09-23T03:48:16.060Z,0
2022-09-23T03:49:31.369Z,0
2022-09-23T03:50:47.683Z,0
2022-09-23T03:52:03.968Z,0
2022-09-23T03:53:20.264Z,0
2022-09-23T03:54:36.548Z,0
2022-09-23T03:55:52.848Z,0
2022-09-23T03:57:09.142Z,0
2022-09-23T03:58:25.432Z,0
2022-09-23T03:59:41.736Z,0
2022-09-23T04:00:58.016Z,0
2022-09-23T04:02:14.322Z,0
2022-09-23T04:03:30.613Z,0
2022-09-23T04:04:46.909Z,0
2022-09-23T04:06:02.215Z,0
2022-09-23T04:07:18.514Z,0
2022-09-23T04:08:34.809Z,0
2022-09-23T04:09:51.091Z,0
2022-09-23T04:11:07.388Z,0
2022-09-23T04:12:23.688Z,0
2022-09-23T04:13:39.979Z,0
2022-09-23T04:14:56.256Z,0
2022-09-23T04:16:12.561Z,0
2022-09-23T04:17:28.846Z,0
2022-09-23T04:18:45.141Z,0
2022-09-23T04:20:01.442Z,0
2022-09-23T04:21:17.732Z,0
2022-09-23T04:22:33.041Z,0
2022-09-23T04:23:49.340Z,0
2022-09-23T04:25:05.629Z,0
2022-09-23T04:26:21.914Z,0
2022-09-23T04:27:38.218Z,0
2022-09-23T04:28:54.454Z,1
2022-09-23T04:30:10.748Z,0
2022-09-23T04:31:27.006Z,1
2022-09-23T04:32:43.241Z,1
2022-09-23T04:33:59.544Z,0
2022-09-23T04:35:15.790Z,2
2022-09-23T04:36:32.033Z,1
2022-09-23T04:37:48.309Z,0
2022-09-23T04:39:03.583Z,7
2022-09-23T04:40:19.836Z,6
2022-09-23T04:41:36.070Z,1
2022-09-23T04:42:52.303Z,1
2022-09-23T04:44:08.548Z,1
2022-09-23T04:45:24.784Z,3
2022-09-23T04:46:41.018Z,3
2022-09-23T04:47:57.253Z,4
2022-09-23T04:49:13.502Z,4
2022-09-23T04:50:29.737Z,5
2022-09-23T04:51:45.972Z,6
2022-09-23T04:53:02.221Z,10
2022-09-23T04:54:18.459Z,10
2022-09-23T04:55:33.715Z,13
2022-09-23T04:56:49.944Z,18
2022-09-23T04:58:06.183Z,16
2022-09-23T04:59:22.443Z,26
2022-09-23T05:00:38.673Z,26
2022-09-23T05:01:54.902Z,29
2022-09-23T05:03:11.149Z,36
2022-09-23T05:04:27.400Z,44
2022-09-23T05:05:43.630Z,49
2022-09-23T05:06:59.873Z,49
2022-09-23T05:08:16.112Z,57
2022-09-23T05:09:32.345Z,61
2022-09-23T05:10:48.584Z,71
2022-09-23T05:12:03.848Z,78
2022-09-23T05:13:20.072Z,81
2022-09-23T05:14:36.312Z,90
2022-09-23T05:15:52.554Z,97
2022-09-23T05:17:08.807Z,107
2022-09-23T05:18:25.043Z,114
2022-09-23T05:19:41.285Z,123
2022-09-23T05:20:57.526Z,129
2022-09-23T05:22:13.769Z,138
2022-09-23T05:23:30.001Z,142
2022-09-23T05:24:46.240Z,153
2022-09-23T05:26:02.482Z,158
2022-09-23T05:27:18.718Z,162
2022-09-23T05:28:33.974Z,169
2022-09-23T05:29:50.209Z,182
2022-09-23T05:31:06.447Z,188
2022-09-23T05:32:22.687Z,193
2022-09-23T05:34:55.167Z,210
2022-09-23T05:36:11.406Z,213
2022-09-23T05:37:27.644Z,218
2022-09-23T05:38:43.882Z,226
2022-09-23T05:40:00.128Z,234
2022-09-23T05:41:16.360Z,245
2022-09-23T05:42:32.606Z,240
2022-09-23T05:43:48.854Z,253
2022-09-23T05:45:04.095Z,257
2022-09-23T05:46:20.347Z,264
2022-09-23T05:47:36.573Z,271
2022-09-23T05:48:52.820Z,271
2022-09-23T05:50:09.063Z,276
2022-09-23T05:51:25.298Z,284
2022-09-23T05:52:40.567Z,290
2022-09-23T05:53:56.807Z,289
2022-09-23T05:55:13.042Z,294
2022-09-23T05:56:29.277Z,301
2022-09-23T05:57:45.516Z,307
2022-09-23T05:59:01.751Z,309
2022-09-23T06:00:18.001Z,316
2022-09-23T06:01:34.240Z,318
2022-09-23T06:02:50.474Z,323
2022-09-23T06:04:06.724Z,329
2022-09-23T06:05:22.961Z,332
2022-09-23T06:06:39.187Z,337
2022-09-23T06:07:55.425Z,336
2022-09-23T06:09:10.687Z,342
2022-09-23T06:10:26.920Z,350
2022-09-23T06:11:43.177Z,355
2022-09-23T06:12:59.417Z,354
2022-09-23T06:14:15.639Z,360
2022-09-23T06:15:31.893Z,364
2022-09-23T06:16:48.116Z,371
2022-09-23T06:18:04.358Z,370
2022-09-23T06:19:20.605Z,372
2022-09-23T06:20:36.847Z,374
2022-09-23T06:21:53.078Z,383
2022-09-23T06:23:09.317Z,383
2022-09-23T06:24:25.565Z,384
2022-09-23T06:25:40.808Z,390
2022-09-23T06:26:57.065Z,392
2022-09-23T06:28:13.296Z,393
2022-09-23T06:29:29.534Z,388
2022-09-23T06:30:45.786Z,392
2022-09-23T06:32:02.014Z,396
2022-09-23T06:33:18.257Z,398
2022-09-23T06:34:34.493Z,416
2022-09-23T06:35:50.726Z,409
2022-09-23T06:37:06.970Z,386
2022-09-23T06:38:23.209Z,387
2022-09-23T06:39:39.460Z,398
2022-09-23T06:40:55.687Z,414
2022-09-23T06:42:10.957Z,405
2022-09-23T06:43:27.183Z,414
2022-09-23T06:44:43.422Z,408
2022-09-23T06:45:59.667Z,412
2022-09-23T06:47:15.909Z,414
2022-09-23T06:48:32.140Z,433
2022-09-23T06:49:48.383Z,435
2022-09-23T06:51:04.615Z,403
2022-09-23T06:52:20.864Z,427
2022-09-23T06:53:37.097Z,435
2022-09-23T06:54:53.338Z,431
2022-09-23T06:56:09.583Z,426
2022-09-23T06:57:25.827Z,437
2022-09-23T06:58:41.071Z,429
2022-09-23T06:59:57.312Z,425
2022-09-23T07:01:13.559Z,442
2022-09-23T07:02:29.794Z,460
2022-09-23T07:03:46.038Z,438
2022-09-23T07:05:02.271Z,434
2022-09-23T07:06:18.522Z,446
2022-09-23T07:07:34.761Z,459
2022-09-23T07:08:50.998Z,439
2022-09-23T07:10:07.229Z,552
2022-09-23T07:11:23.472Z,372
2022-09-23T07:12:39.702Z,456
2022-09-23T07:13:55.953Z,473
2022-09-23T07:15:11.199Z,509
2022-09-23T07:16:27.441Z,464
2022-09-23T07:17:43.694Z,489
2022-09-23T07:18:59.916Z,480
2022-09-23T07:20:16.152Z,488
2022-09-23T07:21:32.394Z,476
2022-09-23T07:22:48.641Z,489
2022-09-23T07:24:04.887Z,482
2022-09-23T07:25:21.122Z,484
2022-09-23T07:26:37.352Z,487
2022-09-23T07:27:53.588Z,529
2022-09-23T07:29:09.831Z,510
2022-09-23T07:30:26.086Z,486
2022-09-23T07:31:41.325Z,536
2022-09-23T07:32:57.578Z,551
2022-09-23T07:34:13.803Z,503
2022-09-23T07:35:30.051Z,503
2022-09-23T07:36:46.283Z,509
2022-09-23T07:38:02.528Z,523
2022-09-23T07:39:18.776Z,492
2022-09-23T07:40:35.015Z,547
2022-09-23T07:41:51.248Z,506
2022-09-23T07:43:07.477Z,504
2022-09-23T07:44:23.719Z,534
2022-09-23T07:45:39.969Z,539
2022-09-23T07:46:56.216Z,520
2022-09-23T07:48:11.452Z,533
2022-09-23T07:49:27.701Z,531
2022-09-23T07:50:43.932Z,607
2022-09-23T07:52:00.171Z,508
2022-09-23T07:53:16.412Z,550
2022-09-23T07:54:32.650Z,549
2022-09-23T07:55:48.900Z,557
2022-09-23T07:57:05.127Z,552
2022-09-23T07:58:21.000Z,571
2022-09-23T07:59:37.623Z,576
2022-09-23T08:00:53.845Z,559
2022-09-23T08:02:10.093Z,569
2022-09-23T08:03:26.342Z,605
2022-09-23T08:04:41.592Z,580
2022-09-23T08:05:57.825Z,574
2022-09-23T08:07:14.063Z,597
2022-09-23T08:08:30.306Z,618
2022-09-23T08:09:46.559Z,626
2022-09-23T08:11:02.788Z,562
2022-09-23T08:12:19.019Z,628
2022-09-23T08:13:35.265Z,549
2022-09-23T08:14:51.513Z,561
2022-09-23T08:16:07.741Z,571
2022-09-23T08:17:23.995Z,553
2022-09-23T08:18:40.219Z,653
2022-09-23T08:19:56.464Z,585
2022-09-23T08:21:11.718Z,658
2022-09-23T08:22:27.955Z,580
2022-09-23T08:23:44.199Z,567
2022-09-23T08:25:00.443Z,667
2022-09-23T08:26:16.672Z,610
2022-09-23T08:27:32.913Z,625
2022-09-23T08:28:49.162Z,655
2022-09-23T08:30:05.396Z,593
2022-09-23T08:31:21.645Z,650
2022-09-23T08:32:37.892Z,646
2022-09-23T08:33:54.119Z,648
2022-09-23T08:35:10.361Z,654
2022-09-23T08:36:26.593Z,694
2022-09-23T08:37:41.857Z,676
2022-09-23T08:38:58.103Z,630
2022-09-23T08:40:14.330Z,670
2022-09-23T08:41:30.572Z,714
2022-09-23T08:42:46.818Z,787
2022-09-23T08:44:03.045Z,765
2022-09-23T08:45:19.294Z,590
2022-09-23T08:46:35.528Z,671
2022-09-23T08:47:51.773Z,799
2022-09-23T08:49:08.022Z,745
2022-09-23T08:50:24.246Z,761
2022-09-23T08:51:40.492Z,772
2022-09-23T08:52:56.737Z,806
2022-09-23T08:54:11.980Z,774
2022-09-23T08:55:28.226Z,786
2022-09-23T08:56:44.459Z,795
2022-09-23T08:58:00.696Z,871
2022-09-23T08:59:16.936Z,874
2022-09-23T09:00:33.181Z,888
2022-09-23T09:01:49.434Z,891
2022-09-23T09:03:05.655Z,737
2022-09-23T09:04:21.902Z,943
2022-09-23T09:05:38.135Z,855
2022-09-23T09:06:54.377Z,895
2022-09-23T09:08:10.614Z,848
2022-09-23T09:09:26.869Z,981
2022-09-23T09:10:42.119Z,943
2022-09-23T09:11:58.353Z,876
2022-09-23T09:13:14.591Z,944
2022-09-23T09:14:30.821Z,922
2022-09-23T09:15:47.072Z,944
2022-09-23T09:17:03.312Z,1044
2022-09-23T09:18:19.541Z,928
2022-09-23T09:19:35.778Z,894
2022-09-23T09:20:52.036Z,982
2022-09-23T09:22:08.265Z,1049
2022-09-23T09:23:24.512Z,1083
2022-09-23T09:24:40.753Z,1007
2022-09-23T09:25:56.980Z,971
2022-09-23T09:27:12.243Z,907
2022-09-23T09:28:28.472Z,1050
2022-09-23T09:29:44.706Z,954
2022-09-23T09:31:00.963Z,1155
2022-09-23T09:32:17.188Z,828
2022-09-23T09:33:33.440Z,984
2022-09-23T09:34:49.676Z,1047
2022-09-23T09:36:05.904Z,1046
2022-09-23T09:37:22.147Z,988
2022-09-23T09:38:38.384Z,1062
2022-09-23T09:39:54.628Z,1012
2022-09-23T09:41:10.867Z,873
2022-09-23T09:42:27.109Z,770
2022-09-23T09:43:42.359Z,1043
2022-09-23T09:44:58.592Z,881
2022-09-23T09:46:14.832Z,1002
2022-09-23T09:47:31.071Z,1091
2022-09-23T09:48:47.308Z,899
2022-09-23T09:50:03.555Z,944
2022-09-23T09:51:19.788Z,669
2022-09-23T09:52:36.032Z,1235
2022-09-23T09:53:52.265Z,1773
2022-09-23T09:55:08.499Z,1921
2022-09-23T09:56:24.748Z,1979
2022-09-23T09:57:40.976Z,1786
2022-09-23T09:58:57.216Z,1569
2022-09-23T10:00:12.465Z,2740
2022-09-23T10:01:28.717Z,3427
2022-09-23T10:02:44.953Z,3294
2022-09-23T10:04:01.200Z,3652
2022-09-23T10:05:17.437Z,3507
2022-09-23T10:06:33.663Z,3494
2022-09-23T10:07:48.926Z,3751
2022-09-23T10:09:05.167Z,3401
2022-09-23T10:10:21.407Z,3515
2022-09-23T10:11:37.637Z,3867
2022-09-23T10:12:53.886Z,3589
2022-09-23T10:14:10.120Z,3048
2022-09-23T10:15:26.372Z,3931
2022-09-23T10:16:42.600Z,4120
2022-09-23T10:17:58.839Z,3336
2022-09-23T10:19:15.082Z,3476
2022-09-23T10:20:31.334Z,3387
2022-09-23T10:21:47.568Z,4071
2022-09-23T10:23:03.799Z,4092
2022-09-23T10:24:19.069Z,3407
2022-09-23T10:25:35.301Z,3385
2022-09-23T10:26:51.550Z,3196
2022-09-23T10:28:07.781Z,3615
2022-09-23T10:29:24.016Z,4346
2022-09-23T10:30:40.269Z,4324
2022-09-23T10:31:56.501Z,3486
2022-09-23T10:33:12.732Z,5137
2022-09-23T10:34:28.988Z,2933
2022-09-23T10:35:45.216Z,3908
2022-09-23T10:37:01.472Z,3439
2022-09-23T10:38:17.701Z,2980
2022-09-23T10:39:33.950Z,3389
2022-09-23T10:40:49.195Z,3179
2022-09-23T10:42:05.432Z,3782
2022-09-23T10:43:21.686Z,2986
2022-09-23T10:44:37.909Z,2812
2022-09-23T10:45:54.163Z,3042
2022-09-23T10:47:10.391Z,3149
2022-09-23T10:48:26.630Z,2960
2022-09-23T10:49:42.880Z,2524
2022-09-23T10:50:59.115Z,2545
2022-09-23T10:52:15.357Z,3110
2022-09-23T10:53:31.598Z,3428
2022-09-23T10:54:47.850Z,3685
2022-09-23T10:56:04.077Z,3515
2022-09-23T10:57:19.334Z,3594
2022-09-23T10:58:35.577Z,3432
2022-09-23T10:59:51.826Z,3737
2022-09-23T11:01:08.062Z,3816
2022-09-23T11:02:24.306Z,3482
2022-09-23T11:03:40.546Z,3804
2022-09-23T11:04:56.779Z,3513
2022-09-23T11:06:13.015Z,3217
2022-09-23T11:07:29.264Z,3862
2022-09-23T11:08:45.491Z,3725
2022-09-23T11:10:01.746Z,3283
2022-09-23T11:11:17.985Z,3567
2022-09-23T11:12:34.210Z,2892
2022-09-23T11:13:49.474Z,3296
2022-09-23T11:15:05.712Z,3325
2022-09-23T11:16:21.943Z,3062
2022-09-23T11:17:38.196Z,3760
2022-09-23T11:18:54.434Z,3249
2022-09-23T11:20:10.681Z,2868
2022-09-23T11:21:26.909Z,4730
2022-09-23T11:22:43.145Z,1691
2022-09-23T11:23:59.400Z,930
2022-09-23T11:25:15.627Z,2326
2022-09-23T11:26:31.887Z,1576
2022-09-23T11:27:48.117Z,5960
2022-09-23T11:29:04.349Z,997
2022-09-23T11:30:19.610Z,2808
2022-09-23T11:31:35.848Z,6491
2022-09-23T11:32:52.092Z,842
2022-09-23T11:34:08.337Z,1335
2022-09-23T11:35:24.574Z,4927
2022-09-23T11:36:40.806Z,4546
2022-09-23T11:37:57.054Z,6464
2022-09-23T11:39:13.286Z,1121
2022-09-23T11:40:29.539Z,5815
2022-09-23T11:41:45.772Z,974
2022-09-23T11:43:02.001Z,5377
2022-09-23T11:44:18.246Z,866
2022-09-23T11:45:34.501Z,1656
2022-09-23T11:46:49.756Z,3724
2022-09-23T11:48:05.985Z,4481
2022-09-23T11:49:22.224Z,5794
2022-09-23T11:50:38.000Z,6083
2022-09-23T11:51:54.706Z,7394
2022-09-23T11:53:10.000Z,1085
2022-09-23T11:54:27.188Z,5167
2022-09-23T11:55:43.420Z,5103
2022-09-23T11:56:59.663Z,5341
2022-09-23T11:58:15.908Z,6143
2022-09-23T11:59:32.141Z,6884
2022-09-23T12:00:48.384Z,6846
2022-09-23T12:02:04.623Z,6806
2022-09-23T12:03:19.877Z,1918
2022-09-23T12:04:36.136Z,1539
2022-09-23T12:05:52.366Z,1399
2022-09-23T12:07:08.603Z,1358
2022-09-23T12:08:24.853Z,1321
2022-09-23T12:09:41.090Z,1394
2022-09-23T12:10:57.333Z,1427
2022-09-23T12:12:13.562Z,1492
2022-09-23T12:13:29.803Z,1463
2022-09-23T12:14:46.045Z,1418
2022-09-23T12:16:02.297Z,1434
2022-09-23T12:17:18.526Z,1656
2022-09-23T12:18:34.775Z,1589
2022-09-23T12:19:50.020Z,1534
2022-09-23T12:21:06.259Z,1446
2022-09-23T12:22:22.501Z,768
2022-09-23T12:23:38.747Z,1099
2022-09-23T12:24:54.980Z,6278
2022-09-23T12:26:11.214Z,1226
2022-09-23T12:27:27.464Z,5462
2022-09-23T12:28:43.713Z,2257
2022-09-23T12:29:59.942Z,4383
2022-09-23T12:31:16.190Z,1284
2022-09-23T12:32:32.421Z,7536
2022-09-23T12:33:48.662Z,2243
2022-09-23T12:35:04.909Z,2059
2022-09-23T12:36:20.155Z,1971
2022-09-23T12:37:36.400Z,1867
2022-09-23T12:38:52.639Z,1444
2022-09-23T12:40:08.876Z,1773
2022-09-23T12:41:25.119Z,1581
2022-09-23T12:42:41.363Z,1382
2022-09-23T12:43:57.593Z,1300
2022-09-23T12:45:13.840Z,1282
2022-09-23T12:46:30.079Z,1303
2022-09-23T12:47:46.315Z,1327
2022-09-23T12:49:02.548Z,1305
2022-09-23T12:50:18.808Z,1304
2022-09-23T12:51:35.029Z,1357
2022-09-23T12:52:50.303Z,1439
2022-09-23T12:54:06.533Z,1480
2022-09-23T12:55:22.782Z,1457
2022-09-23T12:56:39.018Z,848
2022-09-23T12:57:55.253Z,1310
2022-09-23T12:59:11.487Z,6202
2022-09-23T13:00:27.732Z,1795
2022-09-23T13:01:43.973Z,1288
2022-09-23T13:03:00.228Z,8894
2022-09-23T13:04:16.456Z,1946
2022-09-23T13:06:48.925Z,6743
2022-09-23T13:08:05.171Z,1941
2022-09-23T13:09:20.437Z,1895
2022-09-23T13:10:36.677Z,1416
2022-09-23T13:11:52.900Z,1365
2022-09-23T13:13:09.154Z,1366
2022-09-23T13:14:25.396Z,1385
2022-09-23T13:15:41.620Z,1348
2022-09-23T13:16:57.860Z,1374
2022-09-23T13:18:14.097Z,1431
2022-09-23T13:19:30.338Z,1493
2022-09-23T13:20:46.595Z,1489
2022-09-23T13:22:02.827Z,1501
2022-09-23T13:23:19.063Z,1459
2022-09-23T13:24:35.304Z,1412
2022-09-23T13:25:50.552Z,1351
2022-09-23T13:27:06.802Z,1343
2022-09-23T13:28:23.042Z,1392
2022-09-23T13:29:39.271Z,1490
2022-09-23T13:30:55.514Z,1340
2022-09-23T13:32:11.763Z,1213
2022-09-23T13:33:27.998Z,2646
2022-09-23T13:34:44.234Z,7421
2022-09-23T13:36:00.475Z,7480
2022-09-23T13:37:16.720Z,7860
2022-09-23T13:38:32.955Z,7145
2022-09-23T13:39:49.204Z,7071
2022-09-23T13:41:05.435Z,7394
2022-09-23T13:42:20.693Z,7690
2022-09-23T13:43:36.930Z,7982
2022-09-23T13:44:53.164Z,8143
2022-09-23T13:46:09.410Z,6915
2022-09-23T13:47:25.642Z,7630
2022-09-23T13:48:41.909Z,6841
2022-09-23T13:49:58.134Z,10681
2022-09-23T13:51:14.369Z,1331
2022-09-23T13:52:30.608Z,3294
2022-09-23T13:53:46.855Z,2045
2022-09-23T13:55:03.078Z,9124
2022-09-23T13:56:19.320Z,3647
2022-09-23T13:57:35.559Z,1488
2022-09-23T13:58:50.818Z,7369
2022-09-23T14:00:07.066Z,7104
2022-09-23T14:01:23.296Z,7510
2022-09-23T14:02:39.535Z,6113
2022-09-23T14:03:55.779Z,6998
2022-09-23T14:05:12.016Z,7567
2022-09-23T14:06:28.250Z,7745
2022-09-23T14:07:44.496Z,7940
2022-09-23T14:09:00.736Z,8384
2022-09-23T14:10:16.977Z,7383
2022-09-23T14:11:33.221Z,10857
2022-09-23T14:12:49.444Z,2221
2022-09-23T14:14:05.699Z,7200
2022-09-23T14:15:20.941Z,7901
2022-09-23T14:16:37.177Z,6318
2022-09-23T14:17:53.411Z,6945
2022-09-23T14:19:09.655Z,7443
2022-09-23T14:20:25.900Z,7941
2022-09-23T14:21:42.124Z,11280
2022-09-23T14:22:57.380Z,3720
2022-09-23T14:24:13.623Z,2635
2022-09-23T14:25:29.862Z,9160
2022-09-23T14:26:46.102Z,1443
2022-09-23T14:28:02.351Z,4693
2022-09-23T14:29:18.593Z,6846
2022-09-23T14:30:34.823Z,7033
2022-09-23T14:31:51.054Z,8452
2022-09-23T14:33:07.288Z,9021
2022-09-23T14:34:23.530Z,7408
2022-09-23T14:35:39.765Z,4108
2022-09-23T14:36:56.007Z,1842
2022-09-23T14:38:12.252Z,1915
2022-09-23T14:39:27.511Z,1804
2022-09-23T14:40:43.740Z,1523
2022-09-23T14:41:59.975Z,1447
2022-09-23T14:43:16.223Z,1566
2022-09-23T14:44:32.443Z,1467
2022-09-23T14:45:48.681Z,1075
2022-09-23T14:47:04.927Z,748
2022-09-23T14:48:21.175Z,1225
2022-09-23T14:49:37.422Z,3656
2022-09-23T14:50:53.636Z,5063
2022-09-23T14:52:09.873Z,6084
2022-09-23T14:53:26.128Z,3690
2022-09-23T14:54:42.357Z,3186
2022-09-23T14:55:57.618Z,4352
2022-09-23T14:57:13.862Z,2537
2022-09-23T14:58:30.090Z,2483
2022-09-23T14:59:46.323Z,1331
2022-09-23T15:01:02.579Z,704
2022-09-23T15:02:18.814Z,1563
2022-09-23T15:03:35.042Z,2730
2022-09-23T15:04:51.283Z,708
2022-09-23T15:06:07.518Z,1002
2022-09-23T15:07:23.769Z,1429
2022-09-23T15:08:39.996Z,3990
2022-09-23T15:09:56.245Z,4397
2022-09-23T15:11:12.474Z,1122
2022-09-23T15:12:27.729Z,1999
2022-09-23T15:13:43.972Z,5464
2022-09-23T15:15:00.219Z,1423
2022-09-23T15:16:16.449Z,3042
2022-09-23T15:17:32.688Z,4839
2022-09-23T15:18:48.928Z,3434
2022-09-23T15:20:05.173Z,4080
2022-09-23T15:21:21.405Z,1629
2022-09-23T15:22:37.657Z,818
2022-09-23T15:23:53.880Z,1300
2022-09-23T15:25:10.131Z,3607
2022-09-23T15:26:26.359Z,3538
2022-09-23T15:27:42.604Z,3246
2022-09-23T15:28:57.865Z,4065
2022-09-23T15:30:14.100Z,2978
2022-09-23T15:31:30.336Z,4211
2022-09-23T15:32:46.581Z,4406
2022-09-23T15:34:02.813Z,1851
2022-09-23T15:35:19.045Z,2520
2022-09-23T15:36:35.286Z,3456
2022-09-23T15:37:51.536Z,2599
2022-09-23T15:39:07.763Z,2296
2022-09-23T15:40:24.012Z,2081
2022-09-23T15:41:40.255Z,2247
2022-09-23T15:42:56.499Z,2256
2022-09-23T15:44:12.734Z,1749
2022-09-23T15:45:27.978Z,1951
2022-09-23T15:46:44.230Z,2141
2022-09-23T15:48:00.457Z,1792
2022-09-23T15:49:16.705Z,1566
2022-09-23T15:50:32.942Z,1473
2022-09-23T15:51:49.180Z,1208
2022-09-23T15:53:05.427Z,1131
2022-09-23T15:54:21.656Z,1077
2022-09-23T15:55:37.914Z,960
2022-09-23T15:56:54.000Z,862
2022-09-23T15:58:10.366Z,793
2022-09-23T15:59:26.620Z,753
2022-09-23T16:00:42.847Z,740
2022-09-23T16:01:58.103Z,728
2022-09-23T16:03:14.346Z,697
2022-09-23T16:04:30.587Z,671
2022-09-23T16:05:46.839Z,641
2022-09-23T16:07:03.053Z,616
2022-09-23T16:08:19.291Z,579
2022-09-23T16:09:35.532Z,575
2022-09-23T16:10:51.788Z,568
2022-09-23T16:12:08.008Z,580
2022-09-23T16:13:24.256Z,558
2022-09-23T16:14:40.497Z,542
2022-09-23T16:15:56.735Z,522
2022-09-23T16:17:12.971Z,520
2022-09-23T16:18:28.229Z,525
2022-09-23T16:19:44.474Z,512
2022-09-23T16:21:00.714Z,483
2022-09-23T16:22:16.948Z,450
2022-09-23T16:23:33.194Z,429
2022-09-23T16:24:49.421Z,413
2022-09-23T16:26:05.679Z,399
2022-09-23T16:27:21.899Z,383
2022-09-23T16:28:38.153Z,363
2022-09-23T16:29:54.391Z,340
2022-09-23T16:31:10.630Z,320
2022-09-23T16:32:26.868Z,304
2022-09-23T16:33:43.096Z,288
2022-09-23T16:34:58.361Z,269
2022-09-23T16:36:14.604Z,259
2022-09-23T16:37:30.843Z,241
2022-09-23T16:38:47.089Z,226
2022-09-23T16:40:03.329Z,218
2022-09-23T16:41:19.557Z,207
2022-09-23T16:42:35.795Z,195
2022-09-23T16:43:52.037Z,182
2022-09-23T16:45:08.000Z,177
2022-09-23T16:46:24.537Z,163
2022-09-23T16:47:40.756Z,153
2022-09-23T16:48:57.004Z,142
2022-09-23T16:50:13.241Z,136
2022-09-23T16:51:28.499Z,125
2022-09-23T16:52:44.743Z,116
2022-09-23T16:54:00.965Z,105
2022-09-23T16:55:17.210Z,102
2022-09-23T16:56:33.453Z,94
2022-09-23T16:57:49.687Z,81
2022-09-23T16:59:05.923Z,82
2022-09-23T17:00:22.176Z,67
2022-09-23T17:01:38.418Z,65
2022-09-23T17:02:54.657Z,56
2022-09-23T17:04:10.909Z,46
2022-09-23T17:05:27.125Z,43
2022-09-23T17:06:43.375Z,40
2022-09-23T17:07:58.616Z,29
2022-09-23T17:09:14.855Z,28
2022-09-23T17:10:31.096Z,27
2022-09-23T17:11:47.347Z,23
2022-09-23T17:13:03.580Z,23
2022-09-23T17:14:19.836Z,16
2022-09-23T17:15:36.063Z,11
2022-09-23T17:16:52.292Z,12
2022-09-23T17:18:08.543Z,10
2022-09-23T17:19:24.777Z,8
2022-09-23T17:20:41.013Z,8
2022-09-23T17:21:57.254Z,4
2022-09-23T17:23:13.500Z,6
2022-09-23T17:24:28.759Z,4
2022-09-23T17:25:44.996Z,3
2022-09-23T17:27:01.256Z,3
2022-09-23T17:28:17.474Z,2
2022-09-23T17:29:33.721Z,2
2022-09-23T17:30:49.940Z,1
2022-09-23T17:32:06.179Z,1
2022-09-23T17:33:22.429Z,1
2022-09-23T17:34:38.716Z,0
2022-09-23T17:35:55.003Z,0
2022-09-23T17:37:11.317Z,0
2022-09-23T17:38:27.605Z,0
2022-09-23T17:39:43.882Z,0
2022-09-23T17:40:59.197Z,0
2022-09-23T17:42:15.501Z,0